createdAt,value
2023-08-01T00:00:05.464Z,47.68
2023-08-01T00:01:05.601Z,47.78
2023-08-01T00:02:05.540Z,47.80
2023-08-01T00:03:05.516Z,47.84
2023-08-01T00:04:05.533Z,47.94
2023-08-01T00:05:05.456Z,47.99
2023-08-01T00:06:05.434Z,48.03
2023-08-01T00:07:05.469Z,48.13
2023-08-01T00:08:05.439Z,48.15
2023-08-01T00:09:05.498Z,48.26
2023-08-01T00:10:05.455Z,48.26
2023-08-01T00:11:05.429Z,48.30
2023-08-01T00:12:05.811Z,48.35
2023-08-01T00:13:05.435Z,48.38
2023-08-01T00:14:05.393Z,48.43
2023-08-01T00:15:05.422Z,48.55
2023-08-01T00:16:07.967Z,48.51
2023-08-01T00:17:05.407Z,48.60
2023-08-01T00:18:05.450Z,48.54
2023-08-01T00:19:05.377Z,48.71
2023-08-01T00:20:05.398Z,48.67
2023-08-01T00:21:05.358Z,48.74
2023-08-01T00:22:05.428Z,48.83
2023-08-01T00:23:05.411Z,48.89
2023-08-01T00:24:05.368Z,49.01
2023-08-01T00:25:05.412Z,49.12
2023-08-01T00:26:05.390Z,49.10
2023-08-01T00:27:05.369Z,49.20
2023-08-01T00:28:05.425Z,49.22
2023-08-01T00:29:05.306Z,49.32
2023-08-01T00:30:05.365Z,49.34
2023-08-01T00:31:05.317Z,49.29
2023-08-01T00:32:05.322Z,49.48
2023-08-01T00:33:05.267Z,49.43
2023-08-01T00:34:05.274Z,49.51
2023-08-01T00:35:05.263Z,49.52
2023-08-01T00:36:05.235Z,49.58
2023-08-01T00:37:05.251Z,49.60
2023-08-01T00:38:05.227Z,49.61
2023-08-01T00:39:05.231Z,49.73
2023-08-01T00:40:05.261Z,49.72
2023-08-01T00:41:05.219Z,49.83
2023-08-01T00:42:05.192Z,49.78
2023-08-01T00:43:05.301Z,49.80
2023-08-01T00:44:05.182Z,49.88
2023-08-01T00:45:05.200Z,49.85
2023-08-01T00:46:05.204Z,49.74
2023-08-01T00:47:05.191Z,49.83
2023-08-01T00:48:05.203Z,49.94
2023-08-01T00:49:05.162Z,49.77
2023-08-01T00:50:05.199Z,49.98
2023-08-01T00:51:05.169Z,49.94
2023-08-01T00:52:05.345Z,50.02
2023-08-01T00:53:05.135Z,50.14
2023-08-01T00:54:05.110Z,50.09
2023-08-01T00:55:05.133Z,50.11
2023-08-01T00:56:05.114Z,50.09
2023-08-01T00:57:05.122Z,50.11
2023-08-01T00:58:05.141Z,50.20
2023-08-01T00:59:05.103Z,50.26
2023-08-01T01:00:05.083Z,50.35
2023-08-01T01:01:05.106Z,50.28
2023-08-01T01:02:05.120Z,50.31
2023-08-01T01:03:05.178Z,50.29
2023-08-01T01:04:05.049Z,50.34
2023-08-01T01:05:05.062Z,50.36
2023-08-01T01:06:05.044Z,50.36
2023-08-01T01:07:05.049Z,50.31
2023-08-01T01:08:05.339Z,50.41
2023-08-01T01:09:05.043Z,50.30
2023-08-01T01:10:05.029Z,50.34
2023-08-01T01:11:05.024Z,50.42
2023-08-01T01:12:04.988Z,50.42
2023-08-01T01:13:05.028Z,50.47
2023-08-01T01:14:05.030Z,50.45
2023-08-01T01:15:04.977Z,50.47
2023-08-01T01:16:04.967Z,50.41
2023-08-01T01:17:05.052Z,50.45
2023-08-01T01:18:04.966Z,50.47
2023-08-01T01:19:04.982Z,50.42
2023-08-01T01:20:04.937Z,50.40
2023-08-01T01:21:04.948Z,50.48
2023-08-01T01:22:04.971Z,50.45
2023-08-01T01:23:04.954Z,50.37
2023-08-01T01:24:04.935Z,50.40
2023-08-01T01:25:04.957Z,50.42
2023-08-01T01:26:04.917Z,50.38
2023-08-01T01:27:04.920Z,50.42
2023-08-01T01:28:04.961Z,50.46
2023-08-01T01:29:04.908Z,50.45
2023-08-01T01:30:04.881Z,50.41
2023-08-01T01:31:04.955Z,50.44
2023-08-01T01:32:04.899Z,50.44
2023-08-01T01:33:04.964Z,50.39
2023-08-01T01:34:04.862Z,50.46
2023-08-01T01:35:04.852Z,50.42
2023-08-01T01:36:04.851Z,50.43
2023-08-01T01:37:04.850Z,50.42
2023-08-01T01:38:04.836Z,50.37
2023-08-01T01:39:04.839Z,50.37
2023-08-01T01:40:04.842Z,50.40
2023-08-01T01:41:04.830Z,50.43
2023-08-01T01:42:04.806Z,50.45
2023-08-01T01:43:04.806Z,50.44
2023-08-01T01:44:04.817Z,50.43
2023-08-01T01:45:04.791Z,50.49
2023-08-01T01:46:04.878Z,50.48
2023-08-01T01:47:04.794Z,50.49
2023-08-01T01:48:04.809Z,50.53
2023-08-01T01:49:04.776Z,50.48
2023-08-01T01:50:04.776Z,50.52
2023-08-01T01:51:04.783Z,50.48
2023-08-01T01:52:04.751Z,50.48
2023-08-01T01:53:04.773Z,50.51
2023-08-01T01:54:04.747Z,50.48
2023-08-01T01:55:04.748Z,50.53
2023-08-01T01:56:04.758Z,50.58
2023-08-01T01:57:04.806Z,50.55
2023-08-01T01:58:04.832Z,50.58
2023-08-01T01:59:04.832Z,50.57
2023-08-01T02:00:04.890Z,50.54
2023-08-01T02:01:04.925Z,50.58
2023-08-01T02:02:04.938Z,50.58
2023-08-01T02:03:04.934Z,50.67
2023-08-01T02:04:04.955Z,50.61
2023-08-01T02:05:05.047Z,50.60
2023-08-01T02:06:04.991Z,50.60
2023-08-01T02:07:05.006Z,50.60
2023-08-01T02:08:05.046Z,50.61
2023-08-01T02:09:05.109Z,50.64
2023-08-01T02:10:05.069Z,50.62
2023-08-01T02:11:05.105Z,50.64
2023-08-01T02:12:05.136Z,50.56
2023-08-01T02:13:05.139Z,50.57
2023-08-01T02:14:05.172Z,50.57
2023-08-01T02:15:05.206Z,50.57
2023-08-01T02:16:05.347Z,50.55
2023-08-01T02:17:05.249Z,50.54
2023-08-01T02:18:05.299Z,50.54
2023-08-01T02:19:05.268Z,50.54
2023-08-01T02:20:05.321Z,50.51
2023-08-01T02:21:05.334Z,50.52
2023-08-01T02:22:05.345Z,50.54
2023-08-01T02:23:05.371Z,50.50
2023-08-01T02:24:05.400Z,50.52
2023-08-01T02:25:05.411Z,50.50
2023-08-01T02:26:05.500Z,50.51
2023-08-01T02:27:05.507Z,50.47
2023-08-01T02:28:05.590Z,50.51
2023-08-01T02:29:05.506Z,50.49
2023-08-01T02:30:05.546Z,50.50
2023-08-01T02:31:05.585Z,50.49
2023-08-01T02:32:05.651Z,50.45
2023-08-01T02:33:05.700Z,50.49
2023-08-01T02:34:05.637Z,50.45
2023-08-01T02:35:05.655Z,50.44
2023-08-01T02:36:05.679Z,50.45
2023-08-01T02:37:05.718Z,50.47
2023-08-01T02:38:05.807Z,50.47
2023-08-01T02:39:05.832Z,50.47
2023-08-01T02:40:05.791Z,50.48
2023-08-01T02:41:05.847Z,50.44
2023-08-01T02:42:05.957Z,50.44
2023-08-01T02:43:05.907Z,50.47
2023-08-01T02:44:05.941Z,50.49
2023-08-01T02:45:06.895Z,50.47
2023-08-01T02:46:06.015Z,50.46
2023-08-01T02:47:05.999Z,50.46
2023-08-01T02:48:06.107Z,50.47
2023-08-01T02:49:06.060Z,50.45
2023-08-01T02:50:06.080Z,50.43
2023-08-01T02:51:06.122Z,50.41
2023-08-01T02:52:06.155Z,50.40
2023-08-01T02:53:06.177Z,50.42
2023-08-01T02:54:06.209Z,50.41
2023-08-01T02:55:06.234Z,50.37
2023-08-01T02:56:06.258Z,50.35
2023-08-01T02:57:06.307Z,50.36
2023-08-01T02:58:06.330Z,50.35
2023-08-01T02:59:06.353Z,50.35
2023-08-01T03:00:06.392Z,50.33
2023-08-01T03:01:06.435Z,50.33
2023-08-01T03:02:06.431Z,50.34
2023-08-01T03:03:06.489Z,50.34
2023-08-01T03:04:06.482Z,50.34
2023-08-01T03:05:06.511Z,50.34
2023-08-01T03:06:06.542Z,50.34
2023-08-01T03:07:06.595Z,50.36
2023-08-01T03:08:06.585Z,50.37
2023-08-01T03:09:06.634Z,50.36
2023-08-01T03:10:06.641Z,50.40
2023-08-01T03:11:06.704Z,50.39
2023-08-01T03:12:06.737Z,50.38
2023-08-01T03:13:06.748Z,50.40
2023-08-01T03:14:06.778Z,50.39
2023-08-01T03:15:06.812Z,50.40
2023-08-01T03:16:06.880Z,50.38
2023-08-01T03:17:06.880Z,50.36
2023-08-01T03:18:06.925Z,50.35
2023-08-01T03:19:06.915Z,50.34
2023-08-01T03:20:06.946Z,50.32
2023-08-01T03:21:07.002Z,50.31
2023-08-01T03:22:06.995Z,50.28
2023-08-01T03:23:07.030Z,50.30
2023-08-01T03:24:07.081Z,50.28
2023-08-01T03:25:07.075Z,50.30
2023-08-01T03:26:07.129Z,50.31
2023-08-01T03:27:07.141Z,50.33
2023-08-01T03:28:07.210Z,50.32
2023-08-01T03:29:07.253Z,50.33
2023-08-01T03:30:07.246Z,50.31
2023-08-01T03:31:07.267Z,50.31
2023-08-01T03:32:07.393Z,50.30
2023-08-01T03:33:07.365Z,50.30
2023-08-01T03:34:07.414Z,50.36
2023-08-01T03:35:07.397Z,50.33
2023-08-01T03:36:07.417Z,50.35
2023-08-01T03:37:07.484Z,50.35
2023-08-01T03:38:07.505Z,50.35
2023-08-01T03:39:07.550Z,50.38
2023-08-01T03:40:07.573Z,50.44
2023-08-01T03:41:07.611Z,50.43
2023-08-01T03:42:07.653Z,50.43
2023-08-01T03:43:07.706Z,50.44
2023-08-01T03:44:07.716Z,50.46
2023-08-01T03:45:07.760Z,50.51
2023-08-01T03:46:07.825Z,50.53
2023-08-01T03:47:07.853Z,50.49
2023-08-01T03:48:07.918Z,50.54
2023-08-01T03:49:07.887Z,50.52
2023-08-01T03:50:07.965Z,50.52
2023-08-01T03:51:07.981Z,50.55
2023-08-01T03:52:08.003Z,50.55
2023-08-01T03:53:08.057Z,50.56
2023-08-01T03:54:14.053Z,50.58
2023-08-01T03:55:09.083Z,50.55
2023-08-01T03:56:08.062Z,50.58
2023-08-01T03:57:08.061Z,50.57
2023-08-01T03:58:08.061Z,50.57
2023-08-01T03:59:08.047Z,50.58
2023-08-01T04:00:08.043Z,50.58
2023-08-01T04:01:08.060Z,50.59
2023-08-01T04:02:08.039Z,50.61
2023-08-01T04:03:08.078Z,50.58
2023-08-01T04:04:08.089Z,50.57
2023-08-01T04:05:08.007Z,50.63
2023-08-01T04:06:08.006Z,50.60
2023-08-01T04:07:07.993Z,50.64
2023-08-01T04:08:08.031Z,50.66
2023-08-01T04:09:08.061Z,50.68
2023-08-01T04:10:08.102Z,50.74
2023-08-01T04:11:08.130Z,50.68
2023-08-01T04:12:08.169Z,50.68
2023-08-01T04:13:08.202Z,50.67
2023-08-01T04:14:08.249Z,50.68
2023-08-01T04:15:08.277Z,50.70
2023-08-01T04:16:08.346Z,50.73
2023-08-01T04:17:08.369Z,50.67
2023-08-01T04:18:08.466Z,50.70
2023-08-01T04:19:08.434Z,50.71
2023-08-01T04:20:08.482Z,50.71
2023-08-01T04:21:08.500Z,50.70
2023-08-01T04:22:08.547Z,50.72
2023-08-01T04:23:08.567Z,50.72
2023-08-01T04:24:08.597Z,50.69
2023-08-01T04:25:08.634Z,50.65
2023-08-01T04:26:08.692Z,50.71
2023-08-01T04:27:08.724Z,50.70
2023-08-01T04:28:08.818Z,50.70
2023-08-01T04:29:08.901Z,50.68
2023-08-01T04:30:08.869Z,50.70
2023-08-01T04:31:08.920Z,50.69
2023-08-01T04:32:08.946Z,50.74
2023-08-01T04:33:09.038Z,50.74
2023-08-01T04:34:09.000Z,50.72
2023-08-01T04:35:09.061Z,50.73
2023-08-01T04:36:09.102Z,50.74
2023-08-01T04:37:09.154Z,50.76
2023-08-01T04:38:09.172Z,50.74
2023-08-01T04:39:09.195Z,50.70
2023-08-01T04:40:09.291Z,50.72
2023-08-01T04:41:09.296Z,50.76
2023-08-01T04:42:09.348Z,50.73
2023-08-01T04:43:09.390Z,50.75
2023-08-01T04:44:09.437Z,50.76
2023-08-01T04:45:09.473Z,50.77
2023-08-01T04:46:10.710Z,50.74
2023-08-01T04:47:09.598Z,50.80
2023-08-01T04:48:09.581Z,50.79
2023-08-01T04:49:09.635Z,50.81
2023-08-01T04:50:09.696Z,50.76
2023-08-01T04:51:09.723Z,50.77
2023-08-01T04:52:09.783Z,50.76
2023-08-01T04:53:09.801Z,50.78
2023-08-01T04:54:09.836Z,50.79
2023-08-01T04:55:09.898Z,50.82
2023-08-01T04:56:09.933Z,50.81
2023-08-01T04:57:09.962Z,50.79
2023-08-01T04:58:11.540Z,50.81
2023-08-01T04:59:10.111Z,50.81
2023-08-01T05:00:10.086Z,50.83
2023-08-01T05:01:10.244Z,50.85
2023-08-01T05:02:10.181Z,50.84
2023-08-01T05:03:10.361Z,50.82
2023-08-01T05:04:10.266Z,50.85
2023-08-01T05:05:10.335Z,50.85
2023-08-01T05:06:10.405Z,50.84
2023-08-01T05:07:10.435Z,50.88
2023-08-01T05:08:10.469Z,50.85
2023-08-01T05:09:10.512Z,50.88
2023-08-01T05:10:10.574Z,50.95
2023-08-01T05:11:11.439Z,50.93
2023-08-01T05:12:10.657Z,50.94
2023-08-01T05:13:10.722Z,50.96
2023-08-01T05:14:10.760Z,50.93
2023-08-01T05:15:10.861Z,50.94
2023-08-01T05:16:10.863Z,50.96
2023-08-01T05:17:10.916Z,50.94
2023-08-01T05:18:10.945Z,50.99
2023-08-01T05:19:11.009Z,50.98
2023-08-01T05:20:11.041Z,50.98
2023-08-01T05:21:11.103Z,50.99
2023-08-01T05:22:11.122Z,50.96
2023-08-01T05:23:11.189Z,50.99
2023-08-01T05:24:11.214Z,51.00
2023-08-01T05:25:11.282Z,51.04
2023-08-01T05:26:11.310Z,51.00
2023-08-01T05:27:11.379Z,50.99
2023-08-01T05:28:11.411Z,50.98
2023-08-01T05:29:11.454Z,50.98
2023-08-01T05:30:11.479Z,51.01
2023-08-01T05:31:11.558Z,51.02
2023-08-01T05:32:11.562Z,51.06
2023-08-01T05:33:11.686Z,51.00
2023-08-01T05:34:11.655Z,51.03
2023-08-01T05:35:11.677Z,51.08
2023-08-01T05:36:11.732Z,51.10
2023-08-01T05:37:11.815Z,51.11
2023-08-01T05:38:11.830Z,51.12
2023-08-01T05:39:11.894Z,51.12
2023-08-01T05:40:11.968Z,51.13
2023-08-01T05:41:11.981Z,51.14
2023-08-01T05:42:12.021Z,51.11
2023-08-01T05:43:12.073Z,51.20
2023-08-01T05:44:12.161Z,51.13
2023-08-01T05:45:12.204Z,51.15
2023-08-01T05:46:12.247Z,51.11
2023-08-01T05:47:12.308Z,51.15
2023-08-01T05:48:12.332Z,51.17
2023-08-01T05:49:12.385Z,51.22
2023-08-01T05:50:12.417Z,51.21
2023-08-01T05:51:14.474Z,51.19
2023-08-01T05:52:12.483Z,51.19
2023-08-01T05:53:12.470Z,51.21
2023-08-01T05:54:12.458Z,51.24
2023-08-01T05:55:12.448Z,51.29
2023-08-01T05:56:12.490Z,51.32
2023-08-01T05:57:12.518Z,51.36
2023-08-01T05:58:12.431Z,51.44
2023-08-01T05:59:12.438Z,51.46
2023-08-01T06:00:12.437Z,51.45
2023-08-01T06:01:12.449Z,51.45
2023-08-01T06:02:12.430Z,51.54
2023-08-01T06:04:12.504Z,51.48
2023-08-01T06:05:12.392Z,51.57
2023-08-01T06:06:12.390Z,51.62
2023-08-01T06:07:12.379Z,51.64
2023-08-01T06:08:12.358Z,51.67
2023-08-01T06:09:12.377Z,51.70
2023-08-01T06:10:12.421Z,51.67
2023-08-01T06:11:12.366Z,51.63
2023-08-01T06:12:12.335Z,51.62
2023-08-01T06:13:12.322Z,51.64
2023-08-01T06:14:12.356Z,51.67
2023-08-01T06:15:12.312Z,51.65
2023-08-01T06:16:12.360Z,51.67
2023-08-01T06:17:12.314Z,51.62
2023-08-01T06:18:12.283Z,51.61
2023-08-01T06:19:12.302Z,51.64
2023-08-01T06:20:12.299Z,51.71
2023-08-01T06:21:12.284Z,51.74
2023-08-01T06:22:12.274Z,51.70
2023-08-01T06:23:12.282Z,51.70
2023-08-01T06:24:12.263Z,51.74
2023-08-01T06:25:12.260Z,51.79
2023-08-01T06:26:12.242Z,51.80
2023-08-01T06:27:12.254Z,51.78
2023-08-01T06:28:12.256Z,51.80
2023-08-01T06:29:12.244Z,51.82
2023-08-01T06:30:12.297Z,51.89
2023-08-01T06:31:12.318Z,51.89
2023-08-01T06:32:12.456Z,51.88
2023-08-01T06:33:12.511Z,51.94
2023-08-01T06:34:12.508Z,51.92
2023-08-01T06:35:12.541Z,51.96
2023-08-01T06:36:13.293Z,52.00
2023-08-01T06:37:12.653Z,52.05
2023-08-01T06:38:12.677Z,52.00
2023-08-01T06:39:12.710Z,52.04
2023-08-01T06:40:12.775Z,51.99
2023-08-01T06:41:12.821Z,52.01
2023-08-01T06:42:12.855Z,52.03
2023-08-01T06:43:12.911Z,52.06
2023-08-01T06:44:12.963Z,52.03
2023-08-01T06:45:13.008Z,52.11
2023-08-01T06:46:13.094Z,52.19
2023-08-01T06:47:13.109Z,52.13
2023-08-01T06:48:13.136Z,52.20
2023-08-01T06:49:13.211Z,52.19
2023-08-01T06:50:13.250Z,52.15
2023-08-01T06:51:13.284Z,52.24
2023-08-01T06:52:13.350Z,52.19
2023-08-01T06:53:13.417Z,52.21
2023-08-01T06:54:13.458Z,52.21
2023-08-01T06:55:13.514Z,52.19
2023-08-01T06:56:13.585Z,52.22
2023-08-01T06:57:13.620Z,52.22
2023-08-01T06:58:13.652Z,52.21
2023-08-01T06:59:13.707Z,52.21
2023-08-01T07:00:13.773Z,52.22
2023-08-01T07:01:13.848Z,52.22
2023-08-01T07:02:13.867Z,52.18
2023-08-01T07:03:13.997Z,52.15
2023-08-01T07:04:13.975Z,52.20
2023-08-01T07:05:14.035Z,52.21
2023-08-01T07:06:14.134Z,52.17
2023-08-01T07:07:14.169Z,52.19
2023-08-01T07:08:14.193Z,52.23
2023-08-01T07:09:14.249Z,52.21
2023-08-01T07:10:14.307Z,52.27
2023-08-01T07:11:14.330Z,52.26
2023-08-01T07:12:14.419Z,52.31
2023-08-01T07:13:14.452Z,52.26
2023-08-01T07:14:14.501Z,52.28
2023-08-01T07:15:14.581Z,52.29
2023-08-01T07:16:14.642Z,52.34
2023-08-01T07:17:14.665Z,52.33
2023-08-01T07:18:14.731Z,52.36
2023-08-01T07:19:14.766Z,52.34
2023-08-01T07:20:14.813Z,52.30
2023-08-01T07:21:14.884Z,52.34
2023-08-01T07:22:14.940Z,52.37
2023-08-01T07:23:14.985Z,52.37
2023-08-01T07:24:15.024Z,52.34
2023-08-01T07:25:15.080Z,52.37
2023-08-01T07:26:15.187Z,52.36
2023-08-01T07:27:15.216Z,52.36
2023-08-01T07:28:15.306Z,52.39
2023-08-01T07:29:15.289Z,52.44
2023-08-01T07:30:15.359Z,52.47
2023-08-01T07:31:15.459Z,52.43
2023-08-01T07:32:15.452Z,52.46
2023-08-01T07:33:15.522Z,52.50
2023-08-01T07:34:15.572Z,52.43
2023-08-01T07:35:15.713Z,52.48
2023-08-01T07:36:15.721Z,52.50
2023-08-01T07:37:15.712Z,52.51
2023-08-01T07:38:15.810Z,52.57
2023-08-01T07:39:15.823Z,52.63
2023-08-01T07:40:15.885Z,52.65
2023-08-01T07:41:15.930Z,52.62
2023-08-01T07:42:15.988Z,52.70
2023-08-01T07:43:16.031Z,52.68
2023-08-01T07:44:16.063Z,52.75
2023-08-01T07:45:16.115Z,52.70
2023-08-01T07:46:16.205Z,52.73
2023-08-01T07:47:16.205Z,52.75
2023-08-01T07:48:16.253Z,52.75
2023-08-01T07:49:16.286Z,52.70
2023-08-01T07:50:16.361Z,52.66
2023-08-01T07:51:16.419Z,52.66
2023-08-01T07:52:16.455Z,52.66
2023-08-01T07:53:16.505Z,52.67
2023-08-01T07:54:16.598Z,52.66
2023-08-01T07:55:16.618Z,52.67
2023-08-01T07:56:16.666Z,52.62
2023-08-01T07:57:16.745Z,52.56
2023-08-01T07:58:16.776Z,52.56
2023-08-01T07:59:16.840Z,52.56
2023-08-01T08:00:16.838Z,52.48
2023-08-01T08:01:16.904Z,52.48
2023-08-01T08:02:16.961Z,52.47
2023-08-01T08:03:17.052Z,52.47
2023-08-01T08:04:17.053Z,52.51
2023-08-01T08:05:17.092Z,52.51
2023-08-01T08:06:17.158Z,52.53
2023-08-01T08:07:17.166Z,52.51
2023-08-01T08:08:17.232Z,52.47
2023-08-01T08:09:17.228Z,52.37
2023-08-01T08:10:17.292Z,52.33
2023-08-01T08:11:17.320Z,52.41
2023-08-01T08:12:17.361Z,52.45
2023-08-01T08:13:17.420Z,52.42
2023-08-01T08:14:17.434Z,52.42
2023-08-01T08:15:17.495Z,52.40
2023-08-01T08:16:17.570Z,52.43
2023-08-01T08:17:17.607Z,52.43
2023-08-01T08:18:20.326Z,52.55
2023-08-01T08:19:17.618Z,52.51
2023-08-01T08:20:17.593Z,52.58
2023-08-01T08:21:17.618Z,52.59
2023-08-01T08:22:17.561Z,52.59
2023-08-01T08:23:17.566Z,52.58
2023-08-01T08:24:17.589Z,52.62
2023-08-01T08:25:17.539Z,52.63
2023-08-01T08:26:17.539Z,52.68
2023-08-01T08:27:17.527Z,52.71
2023-08-01T08:28:17.550Z,52.68
2023-08-01T08:29:17.522Z,52.70
2023-08-01T08:30:17.531Z,52.69
2023-08-01T08:31:17.552Z,52.75
2023-08-01T08:32:17.488Z,52.76
2023-08-01T08:33:17.486Z,52.74
2023-08-01T08:34:17.497Z,52.75
2023-08-01T08:35:17.490Z,52.74
2023-08-01T08:36:17.492Z,52.74
2023-08-01T08:37:17.491Z,52.79
2023-08-01T08:38:17.473Z,52.77
2023-08-01T08:39:17.464Z,52.80
2023-08-01T08:40:17.461Z,52.82
2023-08-01T08:41:17.444Z,52.81
2023-08-01T08:42:17.452Z,52.83
2023-08-01T08:43:17.422Z,52.91
2023-08-01T08:44:17.420Z,52.90
2023-08-01T08:45:17.424Z,52.92
2023-08-01T08:46:17.460Z,52.97
2023-08-01T08:47:17.404Z,53.07
2023-08-01T08:48:17.380Z,53.05
2023-08-01T08:49:17.422Z,53.10
2023-08-01T08:50:17.376Z,53.11
2023-08-01T08:51:17.370Z,53.11
2023-08-01T08:52:17.379Z,53.13
2023-08-01T08:53:17.368Z,53.12
2023-08-01T08:54:17.363Z,53.15
2023-08-01T08:55:17.345Z,53.09
2023-08-01T08:56:17.352Z,53.11
2023-08-01T08:57:17.337Z,53.03
2023-08-01T08:58:17.331Z,53.08
2023-08-01T08:59:17.337Z,53.06
2023-08-01T09:00:19.099Z,53.10
2023-08-01T09:01:17.353Z,53.10
2023-08-01T09:02:17.437Z,53.07
2023-08-01T09:03:17.369Z,53.11
2023-08-01T09:04:17.290Z,53.04
2023-08-01T09:05:17.318Z,53.06
2023-08-01T09:06:17.256Z,53.01
2023-08-01T09:07:17.256Z,53.02
2023-08-01T09:08:17.256Z,53.00
2023-08-01T09:09:17.286Z,53.00
2023-08-01T09:10:17.286Z,52.97
2023-08-01T09:11:17.249Z,53.01
2023-08-01T09:12:17.319Z,52.96
2023-08-01T09:13:17.227Z,53.02
2023-08-01T09:14:17.227Z,53.02
2023-08-01T09:15:17.206Z,53.01
2023-08-01T09:16:17.234Z,52.99
2023-08-01T09:17:17.207Z,52.98
2023-08-01T09:18:17.215Z,53.03
2023-08-01T09:19:17.219Z,52.98
2023-08-01T09:20:17.185Z,52.94
2023-08-01T09:21:17.172Z,52.93
2023-08-01T09:22:17.171Z,52.91
2023-08-01T09:23:17.190Z,52.88
2023-08-01T09:24:17.153Z,52.83
2023-08-01T09:25:17.155Z,52.78
2023-08-01T09:26:17.167Z,52.74
2023-08-01T09:27:17.168Z,52.79
2023-08-01T09:28:17.189Z,52.83
2023-08-01T09:29:17.126Z,52.86
2023-08-01T09:30:17.409Z,52.87
2023-08-01T09:31:17.172Z,52.80
2023-08-01T09:32:17.136Z,52.75
2023-08-01T09:33:17.095Z,52.70
2023-08-01T09:34:17.088Z,52.67
2023-08-01T09:35:17.140Z,52.60
2023-08-01T09:36:17.103Z,52.66
2023-08-01T09:37:17.091Z,52.55
2023-08-01T09:38:17.067Z,52.56
2023-08-01T09:39:17.047Z,52.55
2023-08-01T09:40:17.098Z,52.50
2023-08-01T09:41:17.065Z,52.53
2023-08-01T09:42:17.055Z,52.58
2023-08-01T09:43:17.022Z,52.54
2023-08-01T09:44:17.044Z,52.51
2023-08-01T09:45:17.052Z,52.58
2023-08-01T09:46:17.065Z,52.64
2023-08-01T09:47:17.023Z,52.65
2023-08-01T09:48:17.117Z,52.74
2023-08-01T09:49:16.990Z,52.80
2023-08-01T09:50:16.993Z,52.74
2023-08-01T09:51:17.006Z,52.70
2023-08-01T09:52:16.977Z,52.71
2023-08-01T09:53:16.983Z,52.75
2023-08-01T09:54:17.001Z,52.72
2023-08-01T09:55:16.966Z,52.66
2023-08-01T09:56:16.953Z,52.70
2023-08-01T09:57:16.936Z,52.77
2023-08-01T09:58:16.937Z,52.81
2023-08-01T09:59:16.934Z,52.73
2023-08-01T10:00:16.934Z,52.68
2023-08-01T10:01:16.909Z,52.74
2023-08-01T10:02:16.909Z,52.70
2023-08-01T10:03:17.013Z,52.67
2023-08-01T10:04:16.904Z,52.65
2023-08-01T10:05:16.945Z,52.71
2023-08-01T10:06:16.893Z,52.72
2023-08-01T10:07:16.885Z,52.77
2023-08-01T10:08:16.907Z,52.68
2023-08-01T10:09:16.902Z,52.61
2023-08-01T10:10:16.884Z,52.61
2023-08-01T10:11:16.856Z,52.64
2023-08-01T10:12:16.879Z,52.62
2023-08-01T10:13:16.864Z,52.71
2023-08-01T10:14:16.856Z,52.74
2023-08-01T10:15:16.880Z,52.75
2023-08-01T10:16:16.860Z,52.63
2023-08-01T10:17:16.858Z,52.58
2023-08-01T10:18:16.844Z,52.55
2023-08-01T10:19:16.853Z,52.53
2023-08-01T10:20:16.813Z,52.58
2023-08-01T10:21:16.827Z,52.53
2023-08-01T10:22:16.818Z,52.50
2023-08-01T10:23:16.800Z,52.51
2023-08-01T10:24:16.847Z,52.49
2023-08-01T10:25:16.880Z,52.58
2023-08-01T10:26:16.929Z,52.57
2023-08-01T10:27:16.885Z,52.58
2023-08-01T10:28:16.969Z,52.66
2023-08-01T10:29:16.912Z,52.67
2023-08-01T10:30:16.920Z,52.69
2023-08-01T10:31:17.015Z,52.73
2023-08-01T10:32:16.988Z,52.71
2023-08-01T10:33:16.998Z,52.69
2023-08-01T10:34:17.594Z,52.67
2023-08-01T10:35:17.074Z,52.68
2023-08-01T10:36:17.053Z,52.64
2023-08-01T10:37:17.065Z,52.64
2023-08-01T10:38:17.101Z,52.59
2023-08-01T10:39:17.103Z,52.57
2023-08-01T10:40:17.341Z,52.51
2023-08-01T10:41:17.166Z,52.55
2023-08-01T10:42:17.196Z,52.50
2023-08-01T10:43:17.180Z,52.47
2023-08-01T10:44:17.237Z,52.49
2023-08-01T10:45:17.238Z,52.44
2023-08-01T10:46:17.292Z,52.43
2023-08-01T10:47:17.287Z,52.46
2023-08-01T10:48:17.299Z,52.44
2023-08-01T10:49:17.318Z,52.47
2023-08-01T10:50:17.314Z,52.48
2023-08-01T10:51:17.342Z,52.42
2023-08-01T10:52:17.403Z,52.38
2023-08-01T10:53:17.379Z,52.32
2023-08-01T10:54:17.411Z,52.34
2023-08-01T10:55:17.424Z,52.25
2023-08-01T10:56:17.575Z,52.32
2023-08-01T10:57:17.458Z,52.35
2023-08-01T10:58:17.506Z,52.39
2023-08-01T10:59:17.528Z,52.46
2023-08-01T11:00:18.357Z,52.48
2023-08-01T11:01:17.591Z,52.48
2023-08-01T11:02:17.594Z,52.38
2023-08-01T11:03:17.643Z,52.39
2023-08-01T11:04:17.600Z,52.34
2023-08-01T11:05:17.600Z,52.29
2023-08-01T11:06:17.635Z,52.22
2023-08-01T11:07:17.623Z,52.23
2023-08-01T11:08:17.651Z,52.29
2023-08-01T11:09:17.664Z,52.30
2023-08-01T11:10:17.690Z,52.19
2023-08-01T11:11:17.741Z,52.24
2023-08-01T11:12:17.714Z,52.26
2023-08-01T11:13:17.755Z,52.25
2023-08-01T11:14:17.733Z,52.22
2023-08-01T11:15:17.750Z,52.25
2023-08-01T11:16:17.790Z,52.26
2023-08-01T11:17:17.778Z,52.25
2023-08-01T11:18:17.794Z,52.16
2023-08-01T11:19:17.787Z,52.23
2023-08-01T11:20:17.814Z,52.25
2023-08-01T11:21:17.824Z,52.29
2023-08-01T11:22:17.814Z,52.30
2023-08-01T11:23:17.822Z,52.27
2023-08-01T11:24:17.835Z,52.22
2023-08-01T11:25:17.820Z,52.19
2023-08-01T11:26:17.825Z,52.09
2023-08-01T11:27:17.843Z,52.09
2023-08-01T11:28:17.895Z,52.05
2023-08-01T11:29:17.863Z,52.01
2023-08-01T11:30:17.844Z,51.98
2023-08-01T11:31:17.902Z,51.94
2023-08-01T11:32:17.865Z,51.94
2023-08-01T11:33:17.860Z,51.87
2023-08-01T11:34:17.873Z,51.86
2023-08-01T11:35:17.891Z,51.83
2023-08-01T11:36:17.861Z,51.85
2023-08-01T11:37:17.886Z,51.88
2023-08-01T11:38:17.873Z,51.87
2023-08-01T11:39:17.869Z,51.86
2023-08-01T11:40:17.865Z,51.94
2023-08-01T11:41:17.951Z,51.91
2023-08-01T11:42:17.880Z,51.98
2023-08-01T11:43:17.908Z,51.92
2023-08-01T11:44:17.937Z,51.90
2023-08-01T11:45:17.897Z,51.76
2023-08-01T11:46:17.934Z,51.56
2023-08-01T11:47:17.928Z,51.51
2023-08-01T11:48:17.890Z,51.45
2023-08-01T11:49:17.913Z,51.34
2023-08-01T11:50:17.879Z,51.26
2023-08-01T11:51:17.892Z,51.14
2023-08-01T11:52:17.918Z,51.11
2023-08-01T11:53:17.879Z,51.03
2023-08-01T11:54:17.928Z,51.04
2023-08-01T11:55:17.914Z,51.02
2023-08-01T11:56:17.933Z,51.04
2023-08-01T11:57:17.954Z,51.02
2023-08-01T11:58:18.037Z,51.11
2023-08-01T11:59:17.944Z,51.08
2023-08-01T12:00:17.959Z,51.07
2023-08-01T12:01:18.007Z,51.06
2023-08-01T12:02:17.952Z,51.06
2023-08-01T12:03:17.988Z,51.04
2023-08-01T12:04:17.983Z,51.08
2023-08-01T12:05:17.992Z,51.10
2023-08-01T12:06:17.977Z,51.11
2023-08-01T12:07:18.001Z,51.11
2023-08-01T12:08:17.984Z,51.10
2023-08-01T12:09:17.990Z,51.08
2023-08-01T12:10:17.997Z,51.07
2023-08-01T12:11:18.008Z,51.06
2023-08-01T12:12:17.994Z,51.14
2023-08-01T12:13:17.996Z,51.10
2023-08-01T12:14:17.991Z,51.07
2023-08-01T12:15:18.002Z,51.12
2023-08-01T12:16:18.042Z,51.07
2023-08-01T12:17:17.994Z,51.08
2023-08-01T12:18:19.059Z,51.05
2023-08-01T12:19:19.027Z,51.09
2023-08-01T12:20:17.992Z,51.06
2023-08-01T12:21:17.967Z,51.04
2023-08-01T12:22:18.047Z,51.01
2023-08-01T12:23:17.967Z,50.93
2023-08-01T12:24:17.990Z,50.90
2023-08-01T12:25:17.951Z,50.85
2023-08-01T12:26:17.961Z,50.84
2023-08-01T12:27:17.943Z,50.72
2023-08-01T12:28:17.944Z,50.69
2023-08-01T12:29:17.941Z,50.67
2023-08-01T12:30:17.928Z,50.59
2023-08-01T12:31:17.966Z,50.55
2023-08-01T12:32:17.940Z,50.52
2023-08-01T12:33:17.892Z,50.55
2023-08-01T12:34:17.900Z,50.51
2023-08-01T12:35:17.887Z,50.50
2023-08-01T12:36:17.868Z,50.57
2023-08-01T12:37:17.918Z,50.55
2023-08-01T12:38:17.891Z,50.48
2023-08-01T12:39:17.873Z,50.40
2023-08-01T12:40:17.984Z,50.34
2023-08-01T12:41:17.856Z,50.40
2023-08-01T12:42:17.850Z,50.36
2023-08-01T12:43:17.832Z,50.39
2023-08-01T12:44:17.811Z,50.41
2023-08-01T12:45:17.811Z,50.36
2023-08-01T12:46:17.869Z,50.37
2023-08-01T12:47:17.817Z,50.38
2023-08-01T12:48:17.808Z,50.34
2023-08-01T12:49:17.800Z,50.38
2023-08-01T12:50:17.779Z,50.38
2023-08-01T12:51:17.796Z,50.30
2023-08-01T12:52:17.755Z,50.30
2023-08-01T12:53:17.802Z,50.21